sensor_id;sensor_type;location;lat;lon;timestamp;pressure;altitude;pressure_sealevel;temperature;humidity
78855;BME280;68206;59.956;30.234;2023-04-24T00:00:01;100553.28;;;13.24;48.41
78855;BME280;68206;59.956;30.234;2023-04-24T00:02:32;100564.66;;;13.27;47.90
78855;BME280;68206;59.956;30.234;2023-04-24T00:05:01;100551.13;;;13.32;46.89
78855;BME280;68206;59.956;30.234;2023-04-24T00:07:29;100550.94;;;13.37;46.35
78855;BME280;68206;59.956;30.234;2023-04-24T00:09:58;100558.78;;;13.40;45.69
78855;BME280;68206;59.956;30.234;2023-04-24T00:12:27;100555.19;;;13.41;45.37
78855;BME280;68206;59.956;30.234;2023-04-24T00:14:58;100553.41;;;13.41;45.09
78855;BME280;68206;59.956;30.234;2023-04-24T00:17:26;100549.94;;;13.39;45.25
78855;BME280;68206;59.956;30.234;2023-04-24T00:19:54;100542.00;;;13.38;45.08
78855;BME280;68206;59.956;30.234;2023-04-24T00:22:25;100548.28;;;13.37;45.50
78855;BME280;68206;59.956;30.234;2023-04-24T00:24:54;100546.66;;;13.32;45.85
78855;BME280;68206;59.956;30.234;2023-04-24T00:27:22;100539.69;;;13.30;45.21
78855;BME280;68206;59.956;30.234;2023-04-24T00:29:52;100551.31;;;13.27;45.94
78855;BME280;68206;59.956;30.234;2023-04-24T00:32:20;100552.31;;;13.25;45.28
78855;BME280;68206;59.956;30.234;2023-04-24T00:34:48;100545.34;;;13.22;45.58
78855;BME280;68206;59.956;30.234;2023-04-24T00:37:16;100540.06;;;13.21;45.79
78855;BME280;68206;59.956;30.234;2023-04-24T00:39:44;100532.94;;;13.21;45.40
78855;BME280;68206;59.956;30.234;2023-04-24T00:42:12;100538.41;;;13.18;45.86
78855;BME280;68206;59.956;30.234;2023-04-24T00:44:41;100535.06;;;13.13;45.58
78855;BME280;68206;59.956;30.234;2023-04-24T00:47:10;100535.25;;;13.09;45.88
78855;BME280;68206;59.956;30.234;2023-04-24T00:49:39;100532.84;;;13.03;45.66
78855;BME280;68206;59.956;30.234;2023-04-24T00:52:08;100530.44;;;12.97;45.77
78855;BME280;68206;59.956;30.234;2023-04-24T00:54:37;100532.44;;;12.91;46.32
78855;BME280;68206;59.956;30.234;2023-04-24T00:57:05;100525.50;;;12.87;46.64
78855;BME280;68206;59.956;30.234;2023-04-24T00:59:34;100528.34;;;12.83;46.54
78855;BME280;68206;59.956;30.234;2023-04-24T01:02:03;100529.41;;;12.79;47.05
78855;BME280;68206;59.956;30.234;2023-04-24T01:04:33;100526.09;;;12.74;47.37
78855;BME280;68206;59.956;30.234;2023-04-24T01:07:01;100528.00;;;12.70;47.34
78855;BME280;68206;59.956;30.234;2023-04-24T01:09:30;100529.84;;;12.68;47.31
78855;BME280;68206;59.956;30.234;2023-04-24T01:11:58;100519.34;;;12.65;47.21
78855;BME280;68206;59.956;30.234;2023-04-24T01:14:27;100519.44;;;12.62;47.75
78855;BME280;68206;59.956;30.234;2023-04-24T01:16:56;100517.84;;;12.58;47.28
78855;BME280;68206;59.956;30.234;2023-04-24T01:19:24;100521.59;;;12.54;47.24
78855;BME280;68206;59.956;30.234;2023-04-24T01:21:54;100522.56;;;12.51;47.61
78855;BME280;68206;59.956;30.234;2023-04-24T01:24:28;100520.03;;;12.48;48.32
78855;BME280;68206;59.956;30.234;2023-04-24T01:26:57;100518.25;;;12.49;48.56
78855;BME280;68206;59.956;30.234;2023-04-24T01:29:25;100513.91;;;12.46;48.19
78855;BME280;68206;59.956;30.234;2023-04-24T01:31:53;100510.44;;;12.44;49.04
78855;BME280;68206;59.956;30.234;2023-04-24T01:34:22;100505.25;;;12.41;48.48
78855;BME280;68206;59.956;30.234;2023-04-24T01:36:51;100507.03;;;12.41;48.64
78855;BME280;68206;59.956;30.234;2023-04-24T01:39:19;100496.59;;;12.36;48.55
78855;BME280;68206;59.956;30.234;2023-04-24T01:41:51;100500.03;;;12.38;49.20
78855;BME280;68206;59.956;30.234;2023-04-24T01:44:20;100498.31;;;12.37;49.34
78855;BME280;68206;59.956;30.234;2023-04-24T01:46:48;100495.66;;;12.37;49.37
78855;BME280;68206;59.956;30.234;2023-04-24T01:49:17;100500.03;;;12.38;48.84
78855;BME280;68206;59.956;30.234;2023-04-24T01:51:45;100484.84;;;12.42;48.74
78855;BME280;68206;59.956;30.234;2023-04-24T01:54:13;100488.19;;;12.47;49.14
78855;BME280;68206;59.956;30.234;2023-04-24T01:56:42;100493.31;;;12.51;49.28
78855;BME280;68206;59.956;30.234;2023-04-24T01:59:12;100493.97;;;12.57;49.35
78855;BME280;68206;59.956;30.234;2023-04-24T02:01:41;100487.63;;;12.61;48.40
78855;BME280;68206;59.956;30.234;2023-04-24T02:04:09;100493.59;;;12.66;49.10
78855;BME280;68206;59.956;30.234;2023-04-24T02:06:37;100492.59;;;12.68;48.85
78855;BME280;68206;59.956;30.234;2023-04-24T02:09:06;100486.34;;;12.69;48.51
78855;BME280;68206;59.956;30.234;2023-04-24T02:11:34;100481.94;;;12.68;48.69
78855;BME280;68206;59.956;30.234;2023-04-24T02:14:02;100484.59;;;12.68;48.88
78855;BME280;68206;59.956;30.234;2023-04-24T02:16:32;100482.09;;;12.65;48.98
78855;BME280;68206;59.956;30.234;2023-04-24T02:19:02;100483.03;;;12.64;49.02
78855;BME280;68206;59.956;30.234;2023-04-24T02:21:31;100488.34;;;12.64;49.07
78855;BME280;68206;59.956;30.234;2023-04-24T02:24:00;100480.34;;;12.64;48.98
78855;BME280;68206;59.956;30.234;2023-04-24T02:26:28;100478.72;;;12.62;48.89
78855;BME280;68206;59.956;30.234;2023-04-24T02:28:58;100477.94;;;12.58;48.28
78855;BME280;68206;59.956;30.234;2023-04-24T02:31:26;100490.38;;;12.58;49.28
78855;BME280;68206;59.956;30.234;2023-04-24T02:33:56;100477.13;;;12.56;48.55
78855;BME280;68206;59.956;30.234;2023-04-24T02:36:24;100474.56;;;12.55;48.70
78855;BME280;68206;59.956;30.234;2023-04-24T02:38:52;100471.03;;;12.54;49.25
78855;BME280;68206;59.956;30.234;2023-04-24T02:41:21;100468.38;;;12.54;49.51
78855;BME280;68206;59.956;30.234;2023-04-24T02:43:49;100469.25;;;12.55;49.15
78855;BME280;68206;59.956;30.234;2023-04-24T02:46:17;100463.13;;;12.52;50.21
78855;BME280;68206;59.956;30.234;2023-04-24T02:48:45;100467.47;;;12.55;49.51
78855;BME280;68206;59.956;30.234;2023-04-24T02:51:14;100465.56;;;12.57;49.59
78855;BME280;68206;59.956;30.234;2023-04-24T02:53:43;100464.53;;;12.61;48.97
78855;BME280;68206;59.956;30.234;2023-04-24T02:56:11;100458.19;;;12.64;49.66
78855;BME280;68206;59.956;30.234;2023-04-24T02:58:39;100461.53;;;12.69;48.62
78855;BME280;68206;59.956;30.234;2023-04-24T03:01:09;100463.94;;;12.75;48.07
78855;BME280;68206;59.956;30.234;2023-04-24T03:03:38;100463.94;;;12.95;48.51
78855;BME280;68206;59.956;30.234;2023-04-24T03:06:07;100458.66;;;13.36;47.22
78855;BME280;68206;59.956;30.234;2023-04-24T03:08:37;100460.78;;;14.04;45.95
78855;BME280;68206;59.956;30.234;2023-04-24T03:11:05;100465.22;;;14.22;45.16
78855;BME280;68206;59.956;30.234;2023-04-24T03:13:34;100452.50;;;14.80;43.67
78855;BME280;68206;59.956;30.234;2023-04-24T03:16:02;100461.13;;;15.54;42.34
78855;BME280;68206;59.956;30.234;2023-04-24T03:18:31;100465.50;;;16.04;41.67
78855;BME280;68206;59.956;30.234;2023-04-24T03:20:59;100458.16;;;16.07;40.75
78855;BME280;68206;59.956;30.234;2023-04-24T03:23:29;100456.31;;;16.39;40.30
78855;BME280;68206;59.956;30.234;2023-04-24T03:25:58;100464.03;;;15.98;40.79
78855;BME280;68206;59.956;30.234;2023-04-24T03:28:26;100453.97;;;15.55;41.82
78855;BME280;68206;59.956;30.234;2023-04-24T03:31:00;100451.75;;;15.79;41.50
78855;BME280;68206;59.956;30.234;2023-04-24T03:33:32;100453.53;;;15.45;41.77
78855;BME280;68206;59.956;30.234;2023-04-24T03:36:01;100452.97;;;15.23;42.25
78855;BME280;68206;59.956;30.234;2023-04-24T03:38:36;100452.28;;;15.02;43.12
78855;BME280;68206;59.956;30.234;2023-04-24T03:41:24;100452.69;;;14.77;43.31
78855;BME280;68206;59.956;30.234;2023-04-24T03:43:55;100456.78;;;14.67;43.70
78855;BME280;68206;59.956;30.234;2023-04-24T03:46:25;100455.66;;;14.71;43.46
78855;BME280;68206;59.956;30.234;2023-04-24T03:48:57;100448.91;;;14.64;43.82
78855;BME280;68206;59.956;30.234;2023-04-24T03:51:29;100457.28;;;14.57;43.55
78855;BME280;68206;59.956;30.234;2023-04-24T03:54:13;100452.19;;;14.52;44.32
78855;BME280;68206;59.956;30.234;2023-04-24T03:56:43;100454.78;;;14.53;43.99
78855;BME280;68206;59.956;30.234;2023-04-24T03:59:11;100467.66;;;14.45;44.39
78855;BME280;68206;59.956;30.234;2023-04-24T04:01:43;100467.72;;;14.44;44.18
78855;BME280;68206;59.956;30.234;2023-04-24T04:04:16;100465.78;;;14.47;44.53
78855;BME280;68206;59.956;30.234;2023-04-24T04:06:45;100462.25;;;14.47;44.26
78855;BME280;68206;59.956;30.234;2023-04-24T04:09:15;100462.94;;;14.50;44.24
78855;BME280;68206;59.956;30.234;2023-04-24T04:11:44;100460.06;;;14.55;43.92
78855;BME280;68206;59.956;30.234;2023-04-24T04:14:12;100458.88;;;14.61;43.96
78855;BME280;68206;59.956;30.234;2023-04-24T04:16:43;100449.63;;;15.02;43.45
78855;BME280;68206;59.956;30.234;2023-04-24T04:19:13;100453.41;;;15.97;41.15
78855;BME280;68206;59.956;30.234;2023-04-24T04:21:41;100450.38;;;15.87;41.45
78855;BME280;68206;59.956;30.234;2023-04-24T04:24:18;100449.84;;;15.81;42.42
78855;BME280;68206;59.956;30.234;2023-04-24T04:26:48;100459.25;;;15.88;42.59
78855;BME280;68206;59.956;30.234;2023-04-24T04:29:28;100446.50;;;15.93;40.85
78855;BME280;68206;59.956;30.234;2023-04-24T04:31:58;100449.69;;;16.15;41.14
78855;BME280;68206;59.956;30.234;2023-04-24T04:34:27;100451.66;;;16.27;40.35
78855;BME280;68206;59.956;30.234;2023-04-24T04:36:57;100450.38;;;16.34;40.00
78855;BME280;68206;59.956;30.234;2023-04-24T04:39:41;100450.56;;;16.77;40.06
78855;BME280;68206;59.956;30.234;2023-04-24T04:42:17;100448.34;;;18.12;38.69
78855;BME280;68206;59.956;30.234;2023-04-24T04:44:45;100433.41;;;18.62;35.88
78855;BME280;68206;59.956;30.234;2023-04-24T04:47:18;100443.59;;;18.84;38.60
78855;BME280;68206;59.956;30.234;2023-04-24T04:49:50;100439.44;;;19.68;37.18
78855;BME280;68206;59.956;30.234;2023-04-24T04:52:22;100444.69;;;20.56;37.17
78855;BME280;68206;59.956;30.234;2023-04-24T04:55:06;100439.78;;;21.19;34.81
78855;BME280;68206;59.956;30.234;2023-04-24T04:57:59;100434.44;;;22.51;34.31
78855;BME280;68206;59.956;30.234;2023-04-24T05:00:28;100432.09;;;23.83;34.04
78855;BME280;68206;59.956;30.234;2023-04-24T05:03:09;100437.16;;;24.95;28.92
78855;BME280;68206;59.956;30.234;2023-04-24T05:05:50;100432.97;;;25.85;29.34
78855;BME280;68206;59.956;30.234;2023-04-24T05:08:19;100437.31;;;26.68;29.82
78855;BME280;68206;59.956;30.234;2023-04-24T05:10:53;100427.09;;;27.49;28.35
78855;BME280;68206;59.956;30.234;2023-04-24T05:13:24;100428.72;;;28.28;31.35
78855;BME280;68206;59.956;30.234;2023-04-24T05:16:07;100432.75;;;28.82;27.77
78855;BME280;68206;59.956;30.234;2023-04-24T05:18:37;100424.25;;;29.34;27.37
78855;BME280;68206;59.956;30.234;2023-04-24T05:21:07;100421.06;;;29.69;24.69
78855;BME280;68206;59.956;30.234;2023-04-24T05:23:37;100416.63;;;29.76;21.76
78855;BME280;68206;59.956;30.234;2023-04-24T05:26:06;100421.22;;;29.84;22.18
78855;BME280;68206;59.956;30.234;2023-04-24T05:28:35;100417.41;;;30.32;21.81
78855;BME280;68206;59.956;30.234;2023-04-24T05:31:08;100418.00;;;30.50;22.63
78855;BME280;68206;59.956;30.234;2023-04-24T05:33:36;100407.88;;;31.04;22.96
78855;BME280;68206;59.956;30.234;2023-04-24T05:36:06;100409.63;;;31.35;22.78
78855;BME280;68206;59.956;30.234;2023-04-24T05:38:34;100405.44;;;31.76;21.88
78855;BME280;68206;59.956;30.234;2023-04-24T05:41:02;100411.31;;;32.38;21.50
78855;BME280;68206;59.956;30.234;2023-04-24T05:43:30;100406.59;;;32.90;20.79
78855;BME280;68206;59.956;30.234;2023-04-24T05:46:00;100412.44;;;32.65;20.14
78855;BME280;68206;59.956;30.234;2023-04-24T05:48:28;100404.09;;;32.95;20.59
78855;BME280;68206;59.956;30.234;2023-04-24T05:51:00;100399.00;;;32.92;20.11
78855;BME280;68206;59.956;30.234;2023-04-24T05:53:29;100396.44;;;32.90;19.08
78855;BME280;68206;59.956;30.234;2023-04-24T05:55:57;100406.91;;;33.01;19.72
78855;BME280;68206;59.956;30.234;2023-04-24T05:58:26;100400.38;;;33.30;18.95
78855;BME280;68206;59.956;30.234;2023-04-24T06:00:54;100400.31;;;33.73;18.51
78855;BME280;68206;59.956;30.234;2023-04-24T06:03:24;100404.88;;;34.00;18.74
78855;BME280;68206;59.956;30.234;2023-04-24T06:05:52;100398.31;;;34.01;18.88
78855;BME280;68206;59.956;30.234;2023-04-24T06:08:22;100399.59;;;34.05;19.00
78855;BME280;68206;59.956;30.234;2023-04-24T06:10:51;100390.00;;;34.42;18.89
78855;BME280;68206;59.956;30.234;2023-04-24T06:13:20;100394.50;;;34.69;17.65
78855;BME280;68206;59.956;30.234;2023-04-24T06:16:15;100392.22;;;34.86;17.81
78855;BME280;68206;59.956;30.234;2023-04-24T06:18:51;100389.91;;;35.03;17.53
78855;BME280;68206;59.956;30.234;2023-04-24T06:21:20;100388.41;;;34.94;17.56
78855;BME280;68206;59.956;30.234;2023-04-24T06:23:48;100385.88;;;35.12;17.45
78855;BME280;68206;59.956;30.234;2023-04-24T06:26:16;100382.06;;;35.13;15.38
78855;BME280;68206;59.956;30.234;2023-04-24T06:28:44;100388.81;;;35.17;14.91
78855;BME280;68206;59.956;30.234;2023-04-24T06:31:13;100382.50;;;34.97;14.68
78855;BME280;68206;59.956;30.234;2023-04-24T06:33:41;100375.47;;;35.01;15.45
78855;BME280;68206;59.956;30.234;2023-04-24T06:36:10;100385.84;;;35.51;15.07
78855;BME280;68206;59.956;30.234;2023-04-24T06:38:39;100379.25;;;35.66;14.11
78855;BME280;68206;59.956;30.234;2023-04-24T06:41:07;100381.69;;;36.00;15.03
78855;BME280;68206;59.956;30.234;2023-04-24T06:43:35;100378.94;;;36.45;13.95
78855;BME280;68206;59.956;30.234;2023-04-24T06:49:09;100374.84;;;35.18;13.42
78855;BME280;68206;59.956;30.234;2023-04-24T06:51:38;100373.59;;;35.34;14.56
78855;BME280;68206;59.956;30.234;2023-04-24T06:54:06;100371.00;;;35.72;14.64
78855;BME280;68206;59.956;30.234;2023-04-24T06:56:34;100374.00;;;36.22;15.23
78855;BME280;68206;59.956;30.234;2023-04-24T06:59:02;100371.22;;;36.60;15.04
78855;BME280;68206;59.956;30.234;2023-04-24T07:01:31;100369.34;;;36.54;14.74
78855;BME280;68206;59.956;30.234;2023-04-24T07:03:59;100375.75;;;36.48;15.62
78855;BME280;68206;59.956;30.234;2023-04-24T07:06:27;100365.88;;;35.69;15.23
78855;BME280;68206;59.956;30.234;2023-04-24T07:08:59;100368.63;;;35.76;15.43
78855;BME280;68206;59.956;30.234;2023-04-24T07:11:28;100362.56;;;35.98;15.17
78855;BME280;68206;59.956;30.234;2023-04-24T07:13:56;100371.25;;;36.09;15.72
78855;BME280;68206;59.956;30.234;2023-04-24T07:16:24;100368.09;;;35.28;14.81
78855;BME280;68206;59.956;30.234;2023-04-24T07:18:52;100370.13;;;35.72;14.48
78855;BME280;68206;59.956;30.234;2023-04-24T07:21:20;100366.66;;;35.89;14.82
78855;BME280;68206;59.956;30.234;2023-04-24T07:23:48;100362.41;;;35.93;15.18
78855;BME280;68206;59.956;30.234;2023-04-24T07:26:19;100372.97;;;36.16;14.25
78855;BME280;68206;59.956;30.234;2023-04-24T07:28:47;100365.03;;;36.26;14.19
78855;BME280;68206;59.956;30.234;2023-04-24T07:31:16;100369.91;;;35.73;14.22
78855;BME280;68206;59.956;30.234;2023-04-24T07:33:44;100345.31;;;35.72;15.88
78855;BME280;68206;59.956;30.234;2023-04-24T07:36:12;100364.66;;;34.99;13.34
78855;BME280;68206;59.956;30.234;2023-04-24T07:38:43;100365.34;;;35.21;14.21
78855;BME280;68206;59.956;30.234;2023-04-24T07:41:12;100363.81;;;35.38;14.68
78855;BME280;68206;59.956;30.234;2023-04-24T07:43:41;100379.53;;;35.25;14.25
78855;BME280;68206;59.956;30.234;2023-04-24T18:32:14;100600.84;;;13.31;55.37
78855;BME280;68206;59.956;30.234;2023-04-24T18:34:42;100591.13;;;13.30;55.50
78855;BME280;68206;59.956;30.234;2023-04-24T18:37:10;100594.81;;;13.28;55.56
78855;BME280;68206;59.956;30.234;2023-04-24T18:39:38;100595.69;;;13.28;55.08
78855;BME280;68206;59.956;30.234;2023-04-24T18:42:06;100593.03;;;13.28;54.35
78855;BME280;68206;59.956;30.234;2023-04-24T18:44:35;100592.97;;;13.30;54.48
78855;BME280;68206;59.956;30.234;2023-04-24T18:47:05;100597.31;;;13.31;54.16
78855;BME280;68206;59.956;30.234;2023-04-24T18:49:35;100599.00;;;13.33;54.22
78855;BME280;68206;59.956;30.234;2023-04-24T18:52:04;100607.94;;;13.32;53.65
78855;BME280;68206;59.956;30.234;2023-04-24T18:54:32;100606.06;;;13.35;54.27
78855;BME280;68206;59.956;30.234;2023-04-24T18:57:00;100612.00;;;13.41;54.63
78855;BME280;68206;59.956;30.234;2023-04-24T18:59:28;100613.47;;;13.48;54.67
78855;BME280;68206;59.956;30.234;2023-04-24T19:01:56;100612.34;;;13.54;54.48
78855;BME280;68206;59.956;30.234;2023-04-24T19:04:24;100614.09;;;13.55;54.54
78855;BME280;68206;59.956;30.234;2023-04-24T19:06:55;100613.88;;;13.59;54.31
78855;BME280;68206;59.956;30.234;2023-04-24T19:09:33;100614.53;;;13.64;54.27
78855;BME280;68206;59.956;30.234;2023-04-24T19:12:02;100613.44;;;13.68;54.17
78855;BME280;68206;59.956;30.234;2023-04-24T19:14:32;100612.47;;;13.71;53.96
78855;BME280;68206;59.956;30.234;2023-04-24T19:17:00;100624.94;;;13.70;54.18
78855;BME280;68206;59.956;30.234;2023-04-24T19:19:28;100620.56;;;13.68;54.59
78855;BME280;68206;59.956;30.234;2023-04-24T19:21:59;100621.59;;;13.65;54.64
78855;BME280;68206;59.956;30.234;2023-04-24T19:24:28;100619.16;;;13.61;55.03
78855;BME280;68206;59.956;30.234;2023-04-24T19:26:58;100619.25;;;13.58;54.37
78855;BME280;68206;59.956;30.234;2023-04-24T19:29:27;100625.72;;;13.52;54.73
78855;BME280;68206;59.956;30.234;2023-04-24T19:31:55;100623.88;;;13.54;54.36
78855;BME280;68206;59.956;30.234;2023-04-24T19:34:24;100628.38;;;13.52;54.57
78855;BME280;68206;59.956;30.234;2023-04-24T19:36:53;100622.19;;;13.52;54.48
78855;BME280;68206;59.956;30.234;2023-04-24T19:39:22;100627.31;;;13.56;54.89
78855;BME280;68206;59.956;30.234;2023-04-24T19:41:50;100622.69;;;13.61;54.33
78855;BME280;68206;59.956;30.234;2023-04-24T19:44:18;100621.59;;;13.65;54.30
78855;BME280;68206;59.956;30.234;2023-04-24T19:46:46;100629.53;;;13.67;53.88
78855;BME280;68206;59.956;30.234;2023-04-24T19:49:14;100616.47;;;13.61;54.18
78855;BME280;68206;59.956;30.234;2023-04-24T19:51:43;100622.72;;;13.60;54.14
78855;BME280;68206;59.956;30.234;2023-04-24T19:54:11;100626.19;;;13.62;54.35
78855;BME280;68206;59.956;30.234;2023-04-24T19:56:41;100628.00;;;13.61;53.88
78855;BME280;68206;59.956;30.234;2023-04-24T19:59:09;100624.47;;;13.61;53.77
78855;BME280;68206;59.956;30.234;2023-04-24T20:01:37;100635.13;;;13.61;53.77
78855;BME280;68206;59.956;30.234;2023-04-24T20:04:07;100635.91;;;13.63;54.07
78855;BME280;68206;59.956;30.234;2023-04-24T20:06:37;100638.31;;;13.69;54.10
78855;BME280;68206;59.956;30.234;2023-04-24T20:09:05;100652.31;;;13.74;54.14
78855;BME280;68206;59.956;30.234;2023-04-24T20:11:33;100644.13;;;13.79;54.02
78855;BME280;68206;59.956;30.234;2023-04-24T20:14:03;100647.56;;;13.81;53.98
78855;BME280;68206;59.956;30.234;2023-04-24T20:16:31;100649.25;;;13.83;54.16
78855;BME280;68206;59.956;30.234;2023-04-24T20:19:00;100663.50;;;13.82;54.31
78855;BME280;68206;59.956;30.234;2023-04-24T20:21:28;100657.38;;;13.80;54.41
78855;BME280;68206;59.956;30.234;2023-04-24T20:23:56;100656.59;;;13.78;54.28
78855;BME280;68206;59.956;30.234;2023-04-24T20:26:24;100648.59;;;13.78;53.97
78855;BME280;68206;59.956;30.234;2023-04-24T20:28:52;100657.38;;;13.80;54.31
78855;BME280;68206;59.956;30.234;2023-04-24T20:31:22;100652.19;;;13.77;54.09
78855;BME280;68206;59.956;30.234;2023-04-24T20:33:50;100655.97;;;13.71;54.19
78855;BME280;68206;59.956;30.234;2023-04-24T20:36:18;100654.28;;;13.69;54.03
78855;BME280;68206;59.956;30.234;2023-04-24T20:38:46;100659.91;;;13.63;54.50
78855;BME280;68206;59.956;30.234;2023-04-24T20:41:14;100660.97;;;13.59;54.46
78855;BME280;68206;59.956;30.234;2023-04-24T20:43:43;100663.91;;;13.53;55.02
78855;BME280;68206;59.956;30.234;2023-04-24T20:46:11;100661.56;;;13.45;54.87
78855;BME280;68206;59.956;30.234;2023-04-24T20:48:40;100668.88;;;13.40;55.20
78855;BME280;68206;59.956;30.234;2023-04-24T20:51:08;100667.34;;;13.35;54.37
78855;BME280;68206;59.956;30.234;2023-04-24T20:53:36;100666.72;;;13.28;55.43
78855;BME280;68206;59.956;30.234;2023-04-24T20:56:05;100671.44;;;13.21;55.72
78855;BME280;68206;59.956;30.234;2023-04-24T20:58:34;100673.44;;;13.16;56.19
78855;BME280;68206;59.956;30.234;2023-04-24T21:01:02;100670.81;;;13.15;55.89
78855;BME280;68206;59.956;30.234;2023-04-24T21:03:30;100676.19;;;13.13;55.86
78855;BME280;68206;59.956;30.234;2023-04-24T21:06:00;100680.75;;;13.10;56.53
78855;BME280;68206;59.956;30.234;2023-04-24T21:08:28;100675.50;;;13.08;56.70
78855;BME280;68206;59.956;30.234;2023-04-24T21:10:56;100669.34;;;13.06;56.47
78855;BME280;68206;59.956;30.234;2023-04-24T21:13:24;100670.16;;;13.08;56.84
78855;BME280;68206;59.956;30.234;2023-04-24T21:15:52;100674.63;;;13.08;56.59
78855;BME280;68206;59.956;30.234;2023-04-24T21:18:20;100670.22;;;13.07;56.70
78855;BME280;68206;59.956;30.234;2023-04-24T21:20:48;100659.56;;;13.07;57.27
78855;BME280;68206;59.956;30.234;2023-04-24T21:23:18;100672.97;;;13.05;56.98
78855;BME280;68206;59.956;30.234;2023-04-24T21:25:47;100675.69;;;13.04;57.40
78855;BME280;68206;59.956;30.234;2023-04-24T21:28:15;100662.38;;;13.04;57.64
78855;BME280;68206;59.956;30.234;2023-04-24T21:30:43;100657.16;;;13.01;57.78
78855;BME280;68206;59.956;30.234;2023-04-24T21:33:11;100665.16;;;13.01;57.82
78855;BME280;68206;59.956;30.234;2023-04-24T21:35:39;100658.94;;;13.00;57.60
78855;BME280;68206;59.956;30.234;2023-04-24T21:38:07;100668.72;;;13.00;58.19
78855;BME280;68206;59.956;30.234;2023-04-24T21:40:36;100661.69;;;12.99;57.87
78855;BME280;68206;59.956;30.234;2023-04-24T21:43:05;100666.06;;;13.00;58.36
78855;BME280;68206;59.956;30.234;2023-04-24T21:45:33;100663.50;;;12.98;58.39
78855;BME280;68206;59.956;30.234;2023-04-24T21:48:01;100660.81;;;12.98;58.87
78855;BME280;68206;59.956;30.234;2023-04-24T21:50:29;100659.97;;;12.98;58.83
78855;BME280;68206;59.956;30.234;2023-04-24T21:52:57;100659.97;;;12.98;59.17
78855;BME280;68206;59.956;30.234;2023-04-24T21:55:25;100657.34;;;12.96;59.18
78855;BME280;68206;59.956;30.234;2023-04-24T21:57:55;100668.00;;;12.96;58.87
78855;BME280;68206;59.956;30.234;2023-04-24T22:00:23;100657.34;;;12.96;59.15
78855;BME280;68206;59.956;30.234;2023-04-24T22:02:51;100660.00;;;12.96;58.53
78855;BME280;68206;59.956;30.234;2023-04-24T22:05:20;100653.75;;;12.97;58.60
78855;BME280;68206;59.956;30.234;2023-04-24T22:07:48;100656.28;;;13.00;58.59
78855;BME280;68206;59.956;30.234;2023-04-24T22:10:16;100644.78;;;13.00;59.05
78855;BME280;68206;59.956;30.234;2023-04-24T22:12:45;100646.66;;;12.98;59.21
78855;BME280;68206;59.956;30.234;2023-04-24T22:15:14;100645.03;;;12.93;60.06
78855;BME280;68206;59.956;30.234;2023-04-24T22:17:42;100639.78;;;12.92;59.56
78855;BME280;68206;59.956;30.234;2023-04-24T22:20:12;100647.63;;;12.95;59.87
78855;BME280;68206;59.956;30.234;2023-04-24T22:22:40;100643.13;;;12.97;58.92
78855;BME280;68206;59.956;30.234;2023-04-24T22:25:08;100641.31;;;12.98;59.90
78855;BME280;68206;59.956;30.234;2023-04-24T22:27:36;100642.19;;;12.98;59.56
78855;BME280;68206;59.956;30.234;2023-04-24T22:30:06;100626.13;;;13.00;59.84
78855;BME280;68206;59.956;30.234;2023-04-24T22:32:36;100627.81;;;13.02;59.83
78855;BME280;68206;59.956;30.234;2023-04-24T22:35:05;100632.31;;;13.00;60.51
78855;BME280;68206;59.956;30.234;2023-04-24T22:37:33;100635.06;;;12.99;59.96
78855;BME280;68206;59.956;30.234;2023-04-24T22:40:02;100622.69;;;12.98;60.71
78855;BME280;68206;59.956;30.234;2023-04-24T22:42:31;100627.00;;;13.00;60.36
78855;BME280;68206;59.956;30.234;2023-04-24T22:44:59;100621.69;;;13.00;59.82
78855;BME280;68206;59.956;30.234;2023-04-24T22:47:28;100620.81;;;13.00;60.16
78855;BME280;68206;59.956;30.234;2023-04-24T22:49:58;100612.66;;;13.04;60.02
78855;BME280;68206;59.956;30.234;2023-04-24T22:52:26;100618.03;;;13.03;60.23
78855;BME280;68206;59.956;30.234;2023-04-24T22:54:56;100613.63;;;13.02;60.26
78855;BME280;68206;59.956;30.234;2023-04-24T22:57:24;100611.91;;;13.01;60.37
78855;BME280;68206;59.956;30.234;2023-04-24T22:59:52;100607.34;;;13.04;60.54
78855;BME280;68206;59.956;30.234;2023-04-24T23:02:20;100612.50;;;13.07;60.26
78855;BME280;68206;59.956;30.234;2023-04-24T23:04:48;100604.41;;;13.10;60.40
78855;BME280;68206;59.956;30.234;2023-04-24T23:07:18;100609.75;;;13.10;60.70
78855;BME280;68206;59.956;30.234;2023-04-24T23:09:46;100602.88;;;13.05;60.28
78855;BME280;68206;59.956;30.234;2023-04-24T23:12:14;100607.44;;;13.01;60.47
78855;BME280;68206;59.956;30.234;2023-04-24T23:14:43;100607.50;;;13.00;60.97
78855;BME280;68206;59.956;30.234;2023-04-24T23:17:11;100605.72;;;13.00;60.61
78855;BME280;68206;59.956;30.234;2023-04-24T23:19:39;100606.53;;;13.02;60.56
78855;BME280;68206;59.956;30.234;2023-04-24T23:22:07;100596.59;;;13.06;60.02
78855;BME280;68206;59.956;30.234;2023-04-24T23:24:37;100597.47;;;13.06;60.62
78855;BME280;68206;59.956;30.234;2023-04-24T23:27:05;100595.66;;;13.07;60.62
78855;BME280;68206;59.956;30.234;2023-04-24T23:29:33;100595.75;;;13.05;60.96
78855;BME280;68206;59.956;30.234;2023-04-24T23:32:01;100594.06;;;13.03;60.30
78855;BME280;68206;59.956;30.234;2023-04-24T23:34:30;100591.53;;;13.00;60.30
78855;BME280;68206;59.956;30.234;2023-04-24T23:36:59;100582.81;;;12.96;61.21
78855;BME280;68206;59.956;30.234;2023-04-24T23:39:28;100583.06;;;12.90;61.21